sensor_id;sensor_type;location;lat;lon;timestamp;temperature;humidity
6752;DHT22;3413;47.680;9.166;2023-05-27T00:02:41;21.70;78.70
6752;DHT22;3413;47.680;9.166;2023-05-27T00:07:44;21.70;78.70
6752;DHT22;3413;47.680;9.166;2023-05-27T00:12:46;21.60;78.60
6752;DHT22;3413;47.680;9.166;2023-05-27T00:17:48;21.60;78.60
6752;DHT22;3413;47.680;9.166;2023-05-27T00:22:51;21.50;78.50
6752;DHT22;3413;47.680;9.166;2023-05-27T00:27:54;21.50;78.60
6752;DHT22;3413;47.680;9.166;2023-05-27T00:32:56;21.40;78.50
6752;DHT22;3413;47.680;9.166;2023-05-27T00:37:58;21.30;78.50
6752;DHT22;3413;47.680;9.166;2023-05-27T00:43:00;21.20;78.40
6752;DHT22;3413;47.680;9.166;2023-05-27T00:48:03;21.20;78.50
6752;DHT22;3413;47.680;9.166;2023-05-27T00:53:05;21.10;78.50
6752;DHT22;3413;47.680;9.166;2023-05-27T00:58:07;21.10;78.50
6752;DHT22;3413;47.680;9.166;2023-05-27T01:03:10;21.10;78.40
6752;DHT22;3413;47.680;9.166;2023-05-27T01:08:23;21.10;78.30
6752;DHT22;3413;47.680;9.166;2023-05-27T01:18:45;21.10;78.20
6752;DHT22;3413;47.680;9.166;2023-05-27T01:23:49;21.10;78.20
6752;DHT22;3413;47.680;9.166;2023-05-27T01:28:52;21.10;78.20
6752;DHT22;3413;47.680;9.166;2023-05-27T01:34:06;21.10;78.20
6752;DHT22;3413;47.680;9.166;2023-05-27T01:39:10;20.90;78.10
6752;DHT22;3413;47.680;9.166;2023-05-27T01:44:16;20.90;78.20
6752;DHT22;3413;47.680;9.166;2023-05-27T01:49:19;20.90;78.20
6752;DHT22;3413;47.680;9.166;2023-05-27T01:54:21;20.90;78.20
6752;DHT22;3413;47.680;9.166;2023-05-27T01:59:23;20.60;78.10
6752;DHT22;3413;47.680;9.166;2023-05-27T02:04:25;20.50;78.20
6752;DHT22;3413;47.680;9.166;2023-05-27T02:09:29;20.30;78.20
6752;DHT22;3413;47.680;9.166;2023-05-27T02:14:31;20.00;78.10
6752;DHT22;3413;47.680;9.166;2023-05-27T02:19:34;19.70;78.30
6752;DHT22;3413;47.680;9.166;2023-05-27T02:24:41;19.50;78.30
6752;DHT22;3413;47.680;9.166;2023-05-27T02:29:43;19.60;78.30
6752;DHT22;3413;47.680;9.166;2023-05-27T02:34:45;19.60;78.10
6752;DHT22;3413;47.680;9.166;2023-05-27T02:39:47;19.70;78.10
6752;DHT22;3413;47.680;9.166;2023-05-27T02:44:49;19.60;78.10
6752;DHT22;3413;47.680;9.166;2023-05-27T02:49:51;19.50;78.20
6752;DHT22;3413;47.680;9.166;2023-05-27T02:54:53;19.50;78.10
6752;DHT22;3413;47.680;9.166;2023-05-27T02:59:55;19.50;78.10
6752;DHT22;3413;47.680;9.166;2023-05-27T03:04:57;19.50;78.00
6752;DHT22;3413;47.680;9.166;2023-05-27T03:09:59;19.40;78.00
6752;DHT22;3413;47.680;9.166;2023-05-27T03:15:01;19.30;78.00
6752;DHT22;3413;47.680;9.166;2023-05-27T03:20:05;19.10;78.10
6752;DHT22;3413;47.680;9.166;2023-05-27T03:25:09;19.00;78.10
6752;DHT22;3413;47.680;9.166;2023-05-27T03:30:12;18.90;78.00
6752;DHT22;3413;47.680;9.166;2023-05-27T03:35:19;18.80;78.00
6752;DHT22;3413;47.680;9.166;2023-05-27T03:40:22;18.80;77.80
6752;DHT22;3413;47.680;9.166;2023-05-27T03:45:23;18.90;77.90
6752;DHT22;3413;47.680;9.166;2023-05-27T03:50:26;18.90;78.00
6752;DHT22;3413;47.680;9.166;2023-05-27T03:55:28;18.90;77.90
6752;DHT22;3413;47.680;9.166;2023-05-27T04:00:30;18.80;77.90
6752;DHT22;3413;47.680;9.166;2023-05-27T04:05:32;18.70;78.00
6752;DHT22;3413;47.680;9.166;2023-05-27T04:10:36;18.70;78.10
6752;DHT22;3413;47.680;9.166;2023-05-27T04:15:38;18.60;78.20
6752;DHT22;3413;47.680;9.166;2023-05-27T04:20:42;18.60;78.30
6752;DHT22;3413;47.680;9.166;2023-05-27T04:25:46;18.70;78.30
6752;DHT22;3413;47.680;9.166;2023-05-27T04:30:51;18.70;78.30
6752;DHT22;3413;47.680;9.166;2023-05-27T04:36:10;18.80;78.40
6752;DHT22;3413;47.680;9.166;2023-05-27T04:41:29;18.80;78.50
6752;DHT22;3413;47.680;9.166;2023-05-27T04:46:45;18.80;78.50
6752;DHT22;3413;47.680;9.166;2023-05-27T04:51:47;18.80;78.60
6752;DHT22;3413;47.680;9.166;2023-05-27T04:56:52;18.80;78.80
6752;DHT22;3413;47.680;9.166;2023-05-27T05:02:02;18.80;78.80
6752;DHT22;3413;47.680;9.166;2023-05-27T05:07:35;18.70;78.80
6752;DHT22;3413;47.680;9.166;2023-05-27T05:12:42;18.60;78.90
6752;DHT22;3413;47.680;9.166;2023-05-27T05:17:45;18.50;78.90
6752;DHT22;3413;47.680;9.166;2023-05-27T05:22:47;18.50;79.00
6752;DHT22;3413;47.680;9.166;2023-05-27T05:27:51;18.50;79.10
6752;DHT22;3413;47.680;9.166;2023-05-27T05:32:54;18.70;79.90
6752;DHT22;3413;47.680;9.166;2023-05-27T05:38:00;18.80;79.90
6752;DHT22;3413;47.680;9.166;2023-05-27T05:43:02;18.90;80.00
6752;DHT22;3413;47.680;9.166;2023-05-27T05:48:04;18.90;79.40
6752;DHT22;3413;47.680;9.166;2023-05-27T05:53:07;19.00;79.60
6752;DHT22;3413;47.680;9.166;2023-05-27T05:58:09;19.10;79.70
6752;DHT22;3413;47.680;9.166;2023-05-27T06:03:11;19.20;79.80
6752;DHT22;3413;47.680;9.166;2023-05-27T06:08:23;19.20;79.70
6752;DHT22;3413;47.680;9.166;2023-05-27T06:13:47;19.30;79.90
6752;DHT22;3413;47.680;9.166;2023-05-27T06:18:52;19.30;80.00
6752;DHT22;3413;47.680;9.166;2023-05-27T06:23:54;19.40;80.00
6752;DHT22;3413;47.680;9.166;2023-05-27T06:28:58;19.60;80.20
6752;DHT22;3413;47.680;9.166;2023-05-27T06:34:02;19.70;80.20
6752;DHT22;3413;47.680;9.166;2023-05-27T06:39:06;19.80;80.30
6752;DHT22;3413;47.680;9.166;2023-05-27T06:44:10;19.80;80.30
6752;DHT22;3413;47.680;9.166;2023-05-27T06:49:27;19.90;80.50
6752;DHT22;3413;47.680;9.166;2023-05-27T06:54:30;20.10;80.70
6752;DHT22;3413;47.680;9.166;2023-05-27T06:59:52;20.20;80.70
6752;DHT22;3413;47.680;9.166;2023-05-27T07:04:54;20.30;80.80
6752;DHT22;3413;47.680;9.166;2023-05-27T07:09:57;20.40;81.00
6752;DHT22;3413;47.680;9.166;2023-05-27T07:15:00;20.50;81.70
6752;DHT22;3413;47.680;9.166;2023-05-27T07:20:03;20.60;81.00
6752;DHT22;3413;47.680;9.166;2023-05-27T07:25:06;20.60;81.80
6752;DHT22;3413;47.680;9.166;2023-05-27T07:30:10;20.70;81.30
6752;DHT22;3413;47.680;9.166;2023-05-27T07:35:19;20.80;81.30
6752;DHT22;3413;47.680;9.166;2023-05-27T07:40:21;21.00;81.60
6752;DHT22;3413;47.680;9.166;2023-05-27T07:45:23;21.10;81.60
6752;DHT22;3413;47.680;9.166;2023-05-27T07:50:25;21.20;81.80
6752;DHT22;3413;47.680;9.166;2023-05-27T07:55:36;21.40;81.90
6752;DHT22;3413;47.680;9.166;2023-05-27T08:00:39;21.50;82.00
6752;DHT22;3413;47.680;9.166;2023-05-27T08:05:42;21.50;82.00
6752;DHT22;3413;47.680;9.166;2023-05-27T08:11:06;21.70;82.30
6752;DHT22;3413;47.680;9.166;2023-05-27T08:16:38;21.80;83.00
6752;DHT22;3413;47.680;9.166;2023-05-27T08:21:47;22.00;82.50
6752;DHT22;3413;47.680;9.166;2023-05-27T08:27:16;22.10;82.50
6752;DHT22;3413;47.680;9.166;2023-05-27T08:32:35;22.20;82.70
6752;DHT22;3413;47.680;9.166;2023-05-27T08:37:38;22.30;82.80
6752;DHT22;3413;47.680;9.166;2023-05-27T08:42:41;22.60;83.10
6752;DHT22;3413;47.680;9.166;2023-05-27T08:47:45;22.80;83.20
6752;DHT22;3413;47.680;9.166;2023-05-27T08:52:54;23.00;83.40
6752;DHT22;3413;47.680;9.166;2023-05-27T08:57:58;23.30;83.60
6752;DHT22;3413;47.680;9.166;2023-05-27T09:03:04;23.40;83.60
6752;DHT22;3413;47.680;9.166;2023-05-27T09:08:08;23.60;83.80
6752;DHT22;3413;47.680;9.166;2023-05-27T09:13:11;23.80;83.90
6752;DHT22;3413;47.680;9.166;2023-05-27T09:18:13;24.00;84.00
6752;DHT22;3413;47.680;9.166;2023-05-27T09:23:17;24.20;84.20
6752;DHT22;3413;47.680;9.166;2023-05-27T09:28:25;24.50;84.40
6752;DHT22;3413;47.680;9.166;2023-05-27T09:33:31;24.90;84.60
6752;DHT22;3413;47.680;9.166;2023-05-27T09:38:35;25.10;84.50
6752;DHT22;3413;47.680;9.166;2023-05-27T09:43:38;25.30;85.20
6752;DHT22;3413;47.680;9.166;2023-05-27T09:48:46;25.40;84.50
6752;DHT22;3413;47.680;9.166;2023-05-27T09:53:49;25.70;84.30
6752;DHT22;3413;47.680;9.166;2023-05-27T09:58:57;25.80;84.30
6752;DHT22;3413;47.680;9.166;2023-05-27T10:03:59;26.00;84.30
6752;DHT22;3413;47.680;9.166;2023-05-27T10:09:02;26.10;84.20
6752;DHT22;3413;47.680;9.166;2023-05-27T10:14:07;26.30;84.20
6752;DHT22;3413;47.680;9.166;2023-05-27T10:19:10;26.40;84.10
6752;DHT22;3413;47.680;9.166;2023-05-27T10:24:12;26.70;84.20
6752;DHT22;3413;47.680;9.166;2023-05-27T10:29:15;26.80;84.00
6752;DHT22;3413;47.680;9.166;2023-05-27T10:34:19;27.10;84.20
6752;DHT22;3413;47.680;9.166;2023-05-27T10:39:21;27.20;84.00
6752;DHT22;3413;47.680;9.166;2023-05-27T10:44:29;27.30;84.00
6752;DHT22;3413;47.680;9.166;2023-05-27T10:49:35;27.30;83.80
6752;DHT22;3413;47.680;9.166;2023-05-27T10:54:47;27.50;83.90
6752;DHT22;3413;47.680;9.166;2023-05-27T10:59:52;27.60;83.90
6752;DHT22;3413;47.680;9.166;2023-05-27T11:04:58;27.70;83.80
6752;DHT22;3413;47.680;9.166;2023-05-27T11:10:00;27.90;83.80
6752;DHT22;3413;47.680;9.166;2023-05-27T11:15:02;28.10;83.60
6752;DHT22;3413;47.680;9.166;2023-05-27T11:20:05;28.20;83.40
6752;DHT22;3413;47.680;9.166;2023-05-27T11:25:09;28.30;83.50
6752;DHT22;3413;47.680;9.166;2023-05-27T11:30:12;28.50;83.30
6752;DHT22;3413;47.680;9.166;2023-05-27T11:35:15;28.50;83.20
6752;DHT22;3413;47.680;9.166;2023-05-27T11:40:19;28.60;83.60
6752;DHT22;3413;47.680;9.166;2023-05-27T11:45:22;28.50;82.80
6752;DHT22;3413;47.680;9.166;2023-05-27T11:50:24;28.70;82.90
6752;DHT22;3413;47.680;9.166;2023-05-27T11:55:26;29.00;83.00
6752;DHT22;3413;47.680;9.166;2023-05-27T12:00:28;29.20;82.90
6752;DHT22;3413;47.680;9.166;2023-05-27T12:05:30;29.20;82.70
6752;DHT22;3413;47.680;9.166;2023-05-27T12:10:36;29.30;82.70
6752;DHT22;3413;47.680;9.166;2023-05-27T12:15:38;29.40;82.50
6752;DHT22;3413;47.680;9.166;2023-05-27T12:20:41;29.50;82.50
6752;DHT22;3413;47.680;9.166;2023-05-27T12:25:43;29.50;82.40
6752;DHT22;3413;47.680;9.166;2023-05-27T12:30:46;29.60;82.00
6752;DHT22;3413;47.680;9.166;2023-05-27T12:35:49;29.70;82.10
6752;DHT22;3413;47.680;9.166;2023-05-27T12:40:52;29.70;81.80
6752;DHT22;3413;47.680;9.166;2023-05-27T12:45:54;29.90;82.00
6752;DHT22;3413;47.680;9.166;2023-05-27T12:50:56;29.90;81.70
6752;DHT22;3413;47.680;9.166;2023-05-27T12:55:58;29.90;81.50
6752;DHT22;3413;47.680;9.166;2023-05-27T13:01:00;29.90;81.40
6752;DHT22;3413;47.680;9.166;2023-05-27T13:06:03;30.00;81.30
6752;DHT22;3413;47.680;9.166;2023-05-27T13:11:05;30.10;81.20
6752;DHT22;3413;47.680;9.166;2023-05-27T13:16:07;30.10;81.00
6752;DHT22;3413;47.680;9.166;2023-05-27T13:21:09;30.20;81.00
6752;DHT22;3413;47.680;9.166;2023-05-27T13:26:12;30.30;80.90
6752;DHT22;3413;47.680;9.166;2023-05-27T13:31:14;30.40;80.80
6752;DHT22;3413;47.680;9.166;2023-05-27T13:36:16;30.40;80.50
6752;DHT22;3413;47.680;9.166;2023-05-27T13:41:18;30.50;80.70
6752;DHT22;3413;47.680;9.166;2023-05-27T13:46:20;30.50;80.30
6752;DHT22;3413;47.680;9.166;2023-05-27T13:51:23;30.50;80.20
6752;DHT22;3413;47.680;9.166;2023-05-27T13:56:25;30.60;80.10
6752;DHT22;3413;47.680;9.166;2023-05-27T14:01:27;30.60;80.00
6752;DHT22;3413;47.680;9.166;2023-05-27T14:06:29;30.70;79.70
6752;DHT22;3413;47.680;9.166;2023-05-27T14:11:31;30.70;79.50
6752;DHT22;3413;47.680;9.166;2023-05-27T14:16:33;30.80;79.70
6752;DHT22;3413;47.680;9.166;2023-05-27T14:21:35;30.90;79.30
6752;DHT22;3413;47.680;9.166;2023-05-27T14:26:37;30.90;79.20
6752;DHT22;3413;47.680;9.166;2023-05-27T14:31:39;30.90;79.00
6752;DHT22;3413;47.680;9.166;2023-05-27T14:36:42;31.00;78.60
6752;DHT22;3413;47.680;9.166;2023-05-27T14:41:44;30.90;78.60
6752;DHT22;3413;47.680;9.166;2023-05-27T14:46:46;30.80;78.40
6752;DHT22;3413;47.680;9.166;2023-05-27T14:51:48;30.80;78.30
6752;DHT22;3413;47.680;9.166;2023-05-27T14:56:50;30.60;78.10
6752;DHT22;3413;47.680;9.166;2023-05-27T15:01:52;30.60;77.90
6752;DHT22;3413;47.680;9.166;2023-05-27T15:06:54;30.70;77.80
6752;DHT22;3413;47.680;9.166;2023-05-27T15:11:56;30.70;77.70
6752;DHT22;3413;47.680;9.166;2023-05-27T15:17:00;30.70;77.50
6752;DHT22;3413;47.680;9.166;2023-05-27T15:22:02;30.70;77.40
6752;DHT22;3413;47.680;9.166;2023-05-27T15:27:10;30.60;77.30
6752;DHT22;3413;47.680;9.166;2023-05-27T15:32:12;30.60;77.20
6752;DHT22;3413;47.680;9.166;2023-05-27T15:37:14;30.70;77.00
6752;DHT22;3413;47.680;9.166;2023-05-27T15:42:15;30.60;76.90
6752;DHT22;3413;47.680;9.166;2023-05-27T15:47:17;30.60;76.90
6752;DHT22;3413;47.680;9.166;2023-05-27T15:52:19;30.50;76.70
6752;DHT22;3413;47.680;9.166;2023-05-27T15:57:21;30.50;76.50
6752;DHT22;3413;47.680;9.166;2023-05-27T16:02:23;30.40;76.40
6752;DHT22;3413;47.680;9.166;2023-05-27T16:07:25;30.40;76.30
6752;DHT22;3413;47.680;9.166;2023-05-27T16:12:27;30.40;76.10
6752;DHT22;3413;47.680;9.166;2023-05-27T16:17:29;30.20;76.10
6752;DHT22;3413;47.680;9.166;2023-05-27T16:22:31;30.10;75.90
6752;DHT22;3413;47.680;9.166;2023-05-27T16:27:33;30.10;75.90
6752;DHT22;3413;47.680;9.166;2023-05-27T16:32:35;30.10;75.70
6752;DHT22;3413;47.680;9.166;2023-05-27T16:37:37;30.10;76.30
6752;DHT22;3413;47.680;9.166;2023-05-27T16:42:39;30.10;75.60
6752;DHT22;3413;47.680;9.166;2023-05-27T16:47:41;30.00;75.50
6752;DHT22;3413;47.680;9.166;2023-05-27T16:52:46;30.00;75.50
6752;DHT22;3413;47.680;9.166;2023-05-27T16:57:48;29.90;75.30
6752;DHT22;3413;47.680;9.166;2023-05-27T17:02:53;29.70;75.00
6752;DHT22;3413;47.680;9.166;2023-05-27T17:07:55;29.60;74.90
6752;DHT22;3413;47.680;9.166;2023-05-27T17:12:57;29.60;75.00
6752;DHT22;3413;47.680;9.166;2023-05-27T17:18:01;29.60;75.00
6752;DHT22;3413;47.680;9.166;2023-05-27T17:23:03;29.60;74.80
6752;DHT22;3413;47.680;9.166;2023-05-27T17:28:05;29.60;74.60
6752;DHT22;3413;47.680;9.166;2023-05-27T17:33:07;29.60;74.30
6752;DHT22;3413;47.680;9.166;2023-05-27T17:38:09;29.50;74.40
6752;DHT22;3413;47.680;9.166;2023-05-27T17:43:12;29.40;74.20
6752;DHT22;3413;47.680;9.166;2023-05-27T17:48:14;29.30;74.10
6752;DHT22;3413;47.680;9.166;2023-05-27T17:53:16;29.30;74.00
6752;DHT22;3413;47.680;9.166;2023-05-27T17:58:18;29.30;73.90
6752;DHT22;3413;47.680;9.166;2023-05-27T18:03:20;29.10;73.80
6752;DHT22;3413;47.680;9.166;2023-05-27T18:08:22;29.10;73.70
6752;DHT22;3413;47.680;9.166;2023-05-27T18:13:25;28.90;73.40
6752;DHT22;3413;47.680;9.166;2023-05-27T18:18:27;28.70;73.40
6752;DHT22;3413;47.680;9.166;2023-05-27T18:23:29;28.40;73.40
6752;DHT22;3413;47.680;9.166;2023-05-27T18:28:31;28.20;73.10
6752;DHT22;3413;47.680;9.166;2023-05-27T18:33:34;27.80;73.20
6752;DHT22;3413;47.680;9.166;2023-05-27T18:38:36;27.50;73.10
6752;DHT22;3413;47.680;9.166;2023-05-27T18:43:38;27.40;73.00
6752;DHT22;3413;47.680;9.166;2023-05-27T18:48:40;27.30;72.80
6752;DHT22;3413;47.680;9.166;2023-05-27T18:53:42;27.10;72.70
6752;DHT22;3413;47.680;9.166;2023-05-27T18:58:47;27.00;72.60
6752;DHT22;3413;47.680;9.166;2023-05-27T19:03:49;26.80;72.50
6752;DHT22;3413;47.680;9.166;2023-05-27T19:08:51;26.70;73.20
6752;DHT22;3413;47.680;9.166;2023-05-27T19:13:53;26.60;72.40
6752;DHT22;3413;47.680;9.166;2023-05-27T19:18:55;26.30;72.40
6752;DHT22;3413;47.680;9.166;2023-05-27T19:23:57;26.10;72.50
6752;DHT22;3413;47.680;9.166;2023-05-27T19:28:59;26.00;72.40
6752;DHT22;3413;47.680;9.166;2023-05-27T19:34:02;25.90;72.20
6752;DHT22;3413;47.680;9.166;2023-05-27T19:39:04;25.70;72.20
6752;DHT22;3413;47.680;9.166;2023-05-27T19:44:06;25.60;72.20
6752;DHT22;3413;47.680;9.166;2023-05-27T19:49:08;25.40;72.00
6752;DHT22;3413;47.680;9.166;2023-05-27T19:54:12;25.30;72.10
6752;DHT22;3413;47.680;9.166;2023-05-27T19:59:14;25.20;72.10
6752;DHT22;3413;47.680;9.166;2023-05-27T20:04:16;25.00;72.00
6752;DHT22;3413;47.680;9.166;2023-05-27T20:09:19;24.90;72.00
6752;DHT22;3413;47.680;9.166;2023-05-27T20:14:21;24.80;71.90
6752;DHT22;3413;47.680;9.166;2023-05-27T20:19:23;24.70;71.90
6752;DHT22;3413;47.680;9.166;2023-05-27T20:24:25;24.70;71.80
6752;DHT22;3413;47.680;9.166;2023-05-27T20:29:27;24.70;71.70
6752;DHT22;3413;47.680;9.166;2023-05-27T20:34:29;24.50;71.70
6752;DHT22;3413;47.680;9.166;2023-05-27T20:39:31;24.50;71.80
6752;DHT22;3413;47.680;9.166;2023-05-27T20:44:34;24.50;71.80
6752;DHT22;3413;47.680;9.166;2023-05-27T20:49:36;24.60;71.90
6752;DHT22;3413;47.680;9.166;2023-05-27T20:54:38;24.50;71.60
6752;DHT22;3413;47.680;9.166;2023-05-27T20:59:40;24.50;71.80
6752;DHT22;3413;47.680;9.166;2023-05-27T21:04:42;24.40;71.70
6752;DHT22;3413;47.680;9.166;2023-05-27T21:09:44;24.20;71.80
6752;DHT22;3413;47.680;9.166;2023-05-27T21:14:47;23.90;71.90
6752;DHT22;3413;47.680;9.166;2023-05-27T21:19:48;23.60;71.60
6752;DHT22;3413;47.680;9.166;2023-05-27T21:24:52;23.40;71.80
6752;DHT22;3413;47.680;9.166;2023-05-27T21:29:54;23.30;71.90
6752;DHT22;3413;47.680;9.166;2023-05-27T21:34:56;23.00;71.70
6752;DHT22;3413;47.680;9.166;2023-05-27T21:39:58;22.70;71.70
6752;DHT22;3413;47.680;9.166;2023-05-27T21:45:00;22.50;71.70
6752;DHT22;3413;47.680;9.166;2023-05-27T21:50:02;22.50;71.60
6752;DHT22;3413;47.680;9.166;2023-05-27T21:55:05;22.40;71.60
6752;DHT22;3413;47.680;9.166;2023-05-27T22:00:09;22.30;71.50
6752;DHT22;3413;47.680;9.166;2023-05-27T22:05:18;22.30;71.40
6752;DHT22;3413;47.680;9.166;2023-05-27T22:10:20;22.10;71.20
6752;DHT22;3413;47.680;9.166;2023-05-27T22:15:22;22.00;71.10
6752;DHT22;3413;47.680;9.166;2023-05-27T22:20:24;21.90;71.10
6752;DHT22;3413;47.680;9.166;2023-05-27T22:25:26;21.80;70.90
6752;DHT22;3413;47.680;9.166;2023-05-27T22:30:33;21.90;70.90
6752;DHT22;3413;47.680;9.166;2023-05-27T22:35:35;22.00;70.70
6752;DHT22;3413;47.680;9.166;2023-05-27T22:40:37;22.20;71.30
6752;DHT22;3413;47.680;9.166;2023-05-27T22:45:39;22.30;70.70
6752;DHT22;3413;47.680;9.166;2023-05-27T22:50:41;22.30;70.60
6752;DHT22;3413;47.680;9.166;2023-05-27T22:55:43;22.30;70.70
6752;DHT22;3413;47.680;9.166;2023-05-27T23:00:45;22.30;70.60
6752;DHT22;3413;47.680;9.166;2023-05-27T23:05:47;22.30;70.70
6752;DHT22;3413;47.680;9.166;2023-05-27T23:10:49;22.20;70.70
6752;DHT22;3413;47.680;9.166;2023-05-27T23:15:51;22.10;70.70
6752;DHT22;3413;47.680;9.166;2023-05-27T23:20:54;22.10;70.60
6752;DHT22;3413;47.680;9.166;2023-05-27T23:25:59;22.20;70.60
6752;DHT22;3413;47.680;9.166;2023-05-27T23:31:01;22.20;70.60
6752;DHT22;3413;47.680;9.166;2023-05-27T23:36:03;22.20;70.60
6752;DHT22;3413;47.680;9.166;2023-05-27T23:41:07;22.10;70.60
6752;DHT22;3413;47.680;9.166;2023-05-27T23:46:10;22.00;70.60
6752;DHT22;3413;47.680;9.166;2023-05-27T23:51:12;22.00;70.70
6752;DHT22;3413;47.680;9.166;2023-05-27T23:56:14;21.90;70.70
